createdAt,value
2022-08-28T00:01:19.470Z,6.60
2022-08-28T00:06:41.974Z,6.30
2022-08-28T00:12:05.618Z,7.35
2022-08-28T00:17:28.012Z,6.15
2022-08-28T00:22:52.275Z,6.60
2022-08-28T00:28:23.659Z,6.15
2022-08-28T00:33:48.116Z,6.28
2022-08-28T00:39:10.698Z,6.50
2022-08-28T00:44:33.526Z,6.30
2022-08-28T00:49:57.333Z,6.70
2022-08-28T00:55:23.453Z,6.38
2022-08-28T01:00:46.122Z,6.32
2022-08-28T01:06:11.299Z,7.03
2022-08-28T01:11:33.869Z,6.30
2022-08-28T01:16:57.379Z,6.65
2022-08-28T01:22:44.731Z,6.22
2022-08-28T01:28:12.525Z,5.70
2022-08-28T01:33:35.363Z,5.47
2022-08-28T01:39:14.352Z,5.70
2022-08-28T01:44:36.887Z,5.82
2022-08-28T01:50:00.219Z,6.18
2022-08-28T01:55:23.108Z,6.25
2022-08-28T02:00:47.047Z,5.82
2022-08-28T02:06:10.387Z,6.32
2022-08-28T02:11:33.253Z,5.72
2022-08-28T02:16:56.360Z,5.88
2022-08-28T02:22:19.342Z,5.85
2022-08-28T02:27:41.636Z,6.82
2022-08-28T02:33:04.592Z,5.82
2022-08-28T02:38:27.244Z,5.30
2022-08-28T02:43:50.199Z,5.32
2022-08-28T02:49:12.737Z,5.78
2022-08-28T02:54:38.764Z,5.32
2022-08-28T03:00:02.426Z,5.70
2022-08-28T03:05:25.577Z,5.68
2022-08-28T03:10:48.105Z,5.00
2022-08-28T03:16:12.743Z,5.55
2022-08-28T03:21:35.276Z,5.30
2022-08-28T03:26:58.499Z,5.80
2022-08-28T03:32:22.373Z,5.40
2022-08-28T03:37:44.798Z,5.05
2022-08-28T03:43:07.408Z,4.93
2022-08-28T03:48:33.013Z,6.18
2022-08-28T03:53:56.652Z,5.85
2022-08-28T03:59:21.589Z,5.53
2022-08-28T04:04:50.733Z,5.63
2022-08-28T04:10:13.162Z,5.70
2022-08-28T04:15:35.554Z,6.07
2022-08-28T04:21:03.184Z,6.35
2022-08-28T04:26:27.130Z,5.53
2022-08-28T04:31:50.329Z,5.32
2022-08-28T04:37:12.638Z,5.43
2022-08-28T04:42:34.809Z,5.47
2022-08-28T04:47:58.187Z,5.25
2022-08-28T04:53:22.708Z,5.65
2022-08-28T04:58:45.564Z,6.15
2022-08-28T05:04:09.715Z,6.35
2022-08-28T05:09:32.370Z,6.97
2022-08-28T05:14:55.171Z,7.85
2022-08-28T05:20:17.900Z,7.68
2022-08-28T05:25:46.774Z,7.30
2022-08-28T05:31:18.998Z,7.80
2022-08-28T05:36:41.660Z,8.30
2022-08-28T05:42:04.419Z,7.68
2022-08-28T05:47:26.643Z,7.78
2022-08-28T05:52:49.534Z,7.53
2022-08-28T05:58:29.959Z,7.47
2022-08-28T06:03:55.670Z,7.90
2022-08-28T06:09:29.005Z,7.55
2022-08-28T06:14:52.913Z,7.97
2022-08-28T06:20:17.832Z,7.90
2022-08-28T06:25:47.040Z,8.00
2022-08-28T06:31:24.464Z,6.95
2022-08-28T06:36:53.119Z,7.05
2022-08-28T06:42:16.302Z,7.00
2022-08-28T06:47:40.964Z,6.15
2022-08-28T06:53:03.587Z,6.05
2022-08-28T06:58:27.935Z,5.82
2022-08-28T07:03:52.727Z,6.38
2022-08-28T07:09:15.364Z,5.95
2022-08-28T07:14:38.262Z,6.10
2022-08-28T07:20:00.695Z,6.95
2022-08-28T07:25:23.398Z,7.03
2022-08-28T07:30:46.332Z,6.63
2022-08-28T07:36:15.663Z,6.60
2022-08-28T07:41:42.564Z,6.68
2022-08-28T07:47:06.590Z,7.22
2022-08-28T07:52:31.131Z,6.93
2022-08-28T07:57:54.095Z,6.95
2022-08-28T08:03:18.385Z,6.45
2022-08-28T08:08:41.388Z,6.88
2022-08-28T08:14:05.607Z,6.50
2022-08-28T08:19:28.507Z,6.50
2022-08-28T08:24:50.803Z,5.97
2022-08-28T08:30:14.934Z,6.75
2022-08-28T08:35:37.410Z,6.13
2022-08-28T08:41:01.939Z,6.40
2022-08-28T08:46:33.196Z,6.45
2022-08-28T08:52:06.330Z,6.03
2022-08-28T08:57:31.347Z,6.15
2022-08-28T09:03:09.553Z,5.95
2022-08-28T09:08:40.189Z,6.47
2022-08-28T09:14:20.556Z,6.07
2022-08-28T09:19:43.003Z,6.55
2022-08-28T09:25:05.999Z,5.82
2022-08-28T09:30:31.895Z,6.07
2022-08-28T09:35:54.144Z,5.93
2022-08-28T09:41:39.638Z,6.93
2022-08-28T09:47:02.470Z,7.15
2022-08-28T09:52:25.465Z,6.70
2022-08-28T09:57:47.762Z,6.93
2022-08-28T10:03:23.456Z,6.75
2022-08-28T10:09:10.330Z,6.55
2022-08-28T10:14:52.111Z,7.13
2022-08-28T10:20:38.604Z,7.70
2022-08-28T10:26:29.835Z,7.43
2022-08-28T10:32:15.535Z,7.65
2022-08-28T10:37:59.711Z,7.13
2022-08-28T10:43:41.238Z,6.63
2022-08-28T10:49:28.424Z,7.28
2022-08-28T10:55:05.202Z,6.72
2022-08-28T11:00:28.770Z,6.40
2022-08-28T11:05:56.576Z,6.47
2022-08-28T11:11:45.700Z,7.70
2022-08-28T11:17:14.254Z,6.82
2022-08-28T11:22:40.499Z,6.07
2022-08-28T11:28:11.838Z,7.18
2022-08-28T11:33:45.444Z,7.00
2022-08-28T11:39:13.766Z,7.93
2022-08-28T11:44:42.498Z,6.97
2022-08-28T11:50:14.782Z,6.63
2022-08-28T11:56:07.705Z,7.07
2022-08-28T12:01:35.527Z,8.57
2022-08-28T12:07:13.777Z,7.13
2022-08-28T12:12:45.025Z,5.97
2022-08-28T12:18:11.795Z,6.15
2022-08-28T12:23:37.275Z,5.85
2022-08-28T12:29:03.374Z,5.57
2022-08-28T12:34:37.819Z,5.15
2022-08-28T12:40:41.833Z,5.78
2022-08-28T12:46:19.032Z,5.55
2022-08-28T12:51:42.151Z,5.13
2022-08-28T12:57:08.312Z,5.75
2022-08-28T13:02:35.940Z,5.25
2022-08-28T13:08:02.367Z,4.90
2022-08-28T13:13:37.833Z,4.95
2022-08-28T13:19:06.894Z,5.72
2022-08-28T13:24:35.303Z,5.53
2022-08-28T13:30:03.942Z,5.57
2022-08-28T13:35:26.599Z,5.35
2022-08-28T13:41:02.578Z,5.68
2022-08-28T13:46:25.089Z,5.57
2022-08-28T13:51:47.424Z,5.30
2022-08-28T13:57:10.517Z,5.63
2022-08-28T14:02:51.883Z,5.57
2022-08-28T14:08:14.429Z,5.00
2022-08-28T14:13:36.608Z,5.30
2022-08-28T14:19:04.115Z,5.15
2022-08-28T14:24:27.353Z,5.63
2022-08-28T14:29:49.811Z,5.07
2022-08-28T14:35:12.460Z,4.32
2022-08-28T14:40:40.559Z,4.00
2022-08-28T14:46:03.266Z,4.30
2022-08-28T14:51:26.092Z,3.92
2022-08-28T14:56:49.394Z,3.70
2022-08-28T15:02:13.624Z,3.55
2022-08-28T15:07:35.751Z,3.90
2022-08-28T15:12:58.191Z,3.30
2022-08-28T15:18:21.461Z,3.55
2022-08-28T15:23:44.293Z,3.25
2022-08-28T15:29:07.555Z,2.97
2022-08-28T15:34:30.165Z,2.70
2022-08-28T15:40:11.455Z,2.92
2022-08-28T15:45:37.673Z,2.53
2022-08-28T15:50:59.867Z,3.35
2022-08-28T15:56:23.463Z,3.05
2022-08-28T16:01:46.247Z,3.20
2022-08-28T16:07:08.631Z,2.95
2022-08-28T16:12:31.417Z,3.20
2022-08-28T16:17:53.812Z,3.67
2022-08-28T16:23:16.068Z,3.72
2022-08-28T16:28:38.630Z,2.90
2022-08-28T16:34:03.059Z,3.90
2022-08-28T16:39:25.685Z,3.00
2022-08-28T16:44:48.624Z,3.15
2022-08-28T16:50:13.629Z,2.97
2022-08-28T16:55:37.308Z,2.85
2022-08-28T17:01:00.489Z,3.20
2022-08-28T17:06:27.521Z,3.20
2022-08-28T17:11:51.590Z,2.88
2022-08-28T17:17:14.718Z,3.08
2022-08-28T17:22:37.552Z,3.00
2022-08-28T17:28:00.135Z,2.92
2022-08-28T17:33:22.718Z,3.20
2022-08-28T17:38:45.139Z,2.92
2022-08-28T17:44:08.197Z,4.50
2022-08-28T17:49:30.419Z,4.00
2022-08-28T17:54:53.459Z,3.47
2022-08-28T18:00:16.899Z,18.95
2022-08-28T18:05:41.252Z,12.68
2022-08-28T18:11:04.254Z,6.57
2022-08-28T18:16:31.158Z,4.75
2022-08-28T18:21:54.788Z,7.20
2022-08-28T18:27:16.959Z,4.07
2022-08-28T18:32:40.046Z,3.85
2022-08-28T18:38:02.521Z,4.28
2022-08-28T18:43:24.702Z,5.22
2022-08-28T18:48:48.081Z,4.25
2022-08-28T18:54:14.595Z,4.82
2022-08-28T18:59:38.947Z,3.90
2022-08-28T19:05:01.358Z,4.28
2022-08-28T19:10:34.152Z,4.53
2022-08-28T19:15:58.420Z,4.30
2022-08-28T19:21:20.957Z,4.50
2022-08-28T19:26:47.639Z,4.35
2022-08-28T19:32:10.370Z,4.18
2022-08-28T19:37:33.071Z,2.80
2022-08-28T19:42:55.917Z,2.85
2022-08-28T19:48:18.503Z,2.25
2022-08-28T19:53:40.977Z,3.20
2022-08-28T19:59:06.233Z,2.80
2022-08-28T20:04:29.439Z,2.55
2022-08-28T20:09:52.319Z,2.70
2022-08-28T20:15:15.949Z,2.57
2022-08-28T20:20:39.064Z,2.72
2022-08-28T20:26:01.262Z,2.30
2022-08-28T20:31:23.888Z,2.53
2022-08-28T20:36:46.904Z,2.50
2022-08-28T20:42:10.400Z,2.22
2022-08-28T20:47:33.208Z,2.40
2022-08-28T20:52:55.827Z,2.58
2022-08-28T20:58:18.334Z,2.70
2022-08-28T21:03:41.064Z,2.87
2022-08-28T21:09:03.624Z,3.40
2022-08-28T21:14:26.143Z,2.67
2022-08-28T21:19:50.783Z,3.20
2022-08-28T21:25:13.582Z,3.03
2022-08-28T21:30:36.116Z,3.10
2022-08-28T21:35:58.831Z,2.87
2022-08-28T21:41:21.287Z,3.03
2022-08-28T21:46:44.383Z,2.63
2022-08-28T21:52:06.606Z,2.77
2022-08-28T21:57:30.064Z,2.63
2022-08-28T22:02:52.729Z,2.93
2022-08-28T22:08:16.125Z,2.50
2022-08-28T22:13:39.046Z,3.30
2022-08-28T22:19:01.344Z,2.67
2022-08-28T22:24:23.762Z,3.07
2022-08-28T22:29:46.332Z,3.00
2022-08-28T22:35:09.649Z,3.30
2022-08-28T22:40:32.689Z,3.13
2022-08-28T22:45:55.674Z,3.00
2022-08-28T22:51:18.787Z,2.90
2022-08-28T22:56:42.147Z,3.27
2022-08-28T23:02:04.883Z,2.70
2022-08-28T23:07:27.167Z,3.37
2022-08-28T23:12:50.130Z,3.00
2022-08-28T23:18:12.758Z,3.40
2022-08-28T23:23:35.483Z,3.33
2022-08-28T23:28:57.946Z,3.17
2022-08-28T23:34:20.328Z,3.27
2022-08-28T23:39:42.766Z,2.87
2022-08-28T23:45:06.555Z,3.00
2022-08-28T23:50:29.048Z,2.97
2022-08-28T23:55:51.382Z,2.80
